sensor_id;sensor_type;location;lat;lon;timestamp;temperature;humidity
10249;DHT22;5169;50.560;9.714;2022-12-07T00:01:51;2.30;99.90
10249;DHT22;5169;50.560;9.714;2022-12-07T00:04:20;2.30;99.90
10249;DHT22;5169;50.560;9.714;2022-12-07T00:06:55;2.30;99.90
10249;DHT22;5169;50.560;9.714;2022-12-07T00:09:23;2.40;99.90
10249;DHT22;5169;50.560;9.714;2022-12-07T00:11:51;2.30;99.90
10249;DHT22;5169;50.560;9.714;2022-12-07T00:14:20;2.40;99.90
10249;DHT22;5169;50.560;9.714;2022-12-07T00:16:51;2.30;99.90
10249;DHT22;5169;50.560;9.714;2022-12-07T00:19:20;2.40;99.90
10249;DHT22;5169;50.560;9.714;2022-12-07T00:21:50;2.50;99.90
10249;DHT22;5169;50.560;9.714;2022-12-07T00:24:22;2.60;99.90
10249;DHT22;5169;50.560;9.714;2022-12-07T00:26:47;2.70;99.90
10249;DHT22;5169;50.560;9.714;2022-12-07T00:29:20;2.60;99.90
10249;DHT22;5169;50.560;9.714;2022-12-07T00:31:47;2.70;99.90
10249;DHT22;5169;50.560;9.714;2022-12-07T00:34:15;2.70;99.90
10249;DHT22;5169;50.560;9.714;2022-12-07T00:36:48;2.50;99.90
10249;DHT22;5169;50.560;9.714;2022-12-07T00:39:22;2.50;99.90
10249;DHT22;5169;50.560;9.714;2022-12-07T00:41:48;2.50;99.90
10249;DHT22;5169;50.560;9.714;2022-12-07T00:44:15;2.40;99.90
10249;DHT22;5169;50.560;9.714;2022-12-07T00:46:44;2.40;99.90
10249;DHT22;5169;50.560;9.714;2022-12-07T00:49:11;2.50;99.90
10249;DHT22;5169;50.560;9.714;2022-12-07T00:51:36;2.50;99.90
10249;DHT22;5169;50.560;9.714;2022-12-07T00:54:02;2.60;99.90
10249;DHT22;5169;50.560;9.714;2022-12-07T00:56:31;2.60;99.90
10249;DHT22;5169;50.560;9.714;2022-12-07T00:59:01;2.60;99.90
10249;DHT22;5169;50.560;9.714;2022-12-07T01:01:36;2.80;99.90
10249;DHT22;5169;50.560;9.714;2022-12-07T01:04:02;2.80;99.90
10249;DHT22;5169;50.560;9.714;2022-12-07T01:06:38;2.80;99.90
10249;DHT22;5169;50.560;9.714;2022-12-07T01:09:03;2.70;99.90
10249;DHT22;5169;50.560;9.714;2022-12-07T01:11:33;2.70;99.90
10249;DHT22;5169;50.560;9.714;2022-12-07T01:14:00;2.70;99.90
10249;DHT22;5169;50.560;9.714;2022-12-07T01:16:28;2.80;99.90
10249;DHT22;5169;50.560;9.714;2022-12-07T01:19:01;2.80;99.90
10249;DHT22;5169;50.560;9.714;2022-12-07T01:21:38;2.70;99.90
10249;DHT22;5169;50.560;9.714;2022-12-07T01:24:11;2.70;99.90
10249;DHT22;5169;50.560;9.714;2022-12-07T01:26:39;2.60;99.90
10249;DHT22;5169;50.560;9.714;2022-12-07T01:29:07;2.60;99.90
10249;DHT22;5169;50.560;9.714;2022-12-07T01:31:33;2.60;99.90
10249;DHT22;5169;50.560;9.714;2022-12-07T01:33:59;2.60;99.90
10249;DHT22;5169;50.560;9.714;2022-12-07T01:36:37;2.80;99.90
10249;DHT22;5169;50.560;9.714;2022-12-07T01:39:05;2.80;99.90
10249;DHT22;5169;50.560;9.714;2022-12-07T01:41:36;2.80;99.90
10249;DHT22;5169;50.560;9.714;2022-12-07T01:47:01;2.90;99.90
10249;DHT22;5169;50.560;9.714;2022-12-07T01:52:21;3.00;99.90
10249;DHT22;5169;50.560;9.714;2022-12-07T01:54:51;3.10;99.90
10249;DHT22;5169;50.560;9.714;2022-12-07T01:57:17;3.10;99.90
10249;DHT22;5169;50.560;9.714;2022-12-07T01:59:48;3.10;99.90
10249;DHT22;5169;50.560;9.714;2022-12-07T02:02:29;3.10;99.90
10249;DHT22;5169;50.560;9.714;2022-12-07T02:05:03;3.10;99.90
10249;DHT22;5169;50.560;9.714;2022-12-07T02:07:37;2.90;99.90
10249;DHT22;5169;50.560;9.714;2022-12-07T02:10:17;2.90;99.90
10249;DHT22;5169;50.560;9.714;2022-12-07T02:12:52;3.00;99.90
10249;DHT22;5169;50.560;9.714;2022-12-07T02:30:12;3.10;99.90
10249;DHT22;5169;50.560;9.714;2022-12-07T02:32:43;3.10;99.90
10249;DHT22;5169;50.560;9.714;2022-12-07T02:35:51;3.00;99.90
10249;DHT22;5169;50.560;9.714;2022-12-07T02:41:02;3.10;99.90
10249;DHT22;5169;50.560;9.714;2022-12-07T02:46:28;3.10;99.90
10249;DHT22;5169;50.560;9.714;2022-12-07T02:48:59;3.10;99.90
10249;DHT22;5169;50.560;9.714;2022-12-07T02:51:30;3.20;99.90
10249;DHT22;5169;50.560;9.714;2022-12-07T02:53:59;3.20;99.90
10249;DHT22;5169;50.560;9.714;2022-12-07T03:13:35;3.20;99.90
10249;DHT22;5169;50.560;9.714;2022-12-07T03:16:13;3.30;99.90
10249;DHT22;5169;50.560;9.714;2022-12-07T03:18:51;3.30;99.90
10249;DHT22;5169;50.560;9.714;2022-12-07T03:21:26;3.30;99.90
10249;DHT22;5169;50.560;9.714;2022-12-07T03:24:02;3.30;99.90
10249;DHT22;5169;50.560;9.714;2022-12-07T03:26:47;3.20;99.90
10249;DHT22;5169;50.560;9.714;2022-12-07T03:29:25;3.20;99.90
10249;DHT22;5169;50.560;9.714;2022-12-07T03:32:05;3.20;99.90
10249;DHT22;5169;50.560;9.714;2022-12-07T03:34:53;3.20;99.90
10249;DHT22;5169;50.560;9.714;2022-12-07T03:38:20;3.10;99.90
10249;DHT22;5169;50.560;9.714;2022-12-07T03:43:18;3.00;99.90
10249;DHT22;5169;50.560;9.714;2022-12-07T03:46:11;3.00;99.90
10249;DHT22;5169;50.560;9.714;2022-12-07T03:48:42;3.10;99.90
10249;DHT22;5169;50.560;9.714;2022-12-07T03:51:33;3.20;99.90
10249;DHT22;5169;50.560;9.714;2022-12-07T03:54:29;3.10;99.90
10249;DHT22;5169;50.560;9.714;2022-12-07T03:57:01;3.10;99.90
10249;DHT22;5169;50.560;9.714;2022-12-07T03:59:28;3.10;99.90
10249;DHT22;5169;50.560;9.714;2022-12-07T04:01:57;3.10;99.90
10249;DHT22;5169;50.560;9.714;2022-12-07T04:04:28;3.20;99.90
10249;DHT22;5169;50.560;9.714;2022-12-07T04:06:54;3.20;99.90
10249;DHT22;5169;50.560;9.714;2022-12-07T04:09:21;3.20;99.90
10249;DHT22;5169;50.560;9.714;2022-12-07T04:11:49;3.20;99.90
10249;DHT22;5169;50.560;9.714;2022-12-07T04:14:17;3.20;99.90
10249;DHT22;5169;50.560;9.714;2022-12-07T04:16:47;3.20;99.90
10249;DHT22;5169;50.560;9.714;2022-12-07T04:19:23;3.20;99.90
10249;DHT22;5169;50.560;9.714;2022-12-07T04:21:49;3.20;99.90
10249;DHT22;5169;50.560;9.714;2022-12-07T04:24:18;3.20;99.90
10249;DHT22;5169;50.560;9.714;2022-12-07T04:26:44;3.20;99.90
10249;DHT22;5169;50.560;9.714;2022-12-07T04:29:11;3.20;99.90
10249;DHT22;5169;50.560;9.714;2022-12-07T04:31:42;3.20;99.90
10249;DHT22;5169;50.560;9.714;2022-12-07T04:34:09;3.20;99.90
10249;DHT22;5169;50.560;9.714;2022-12-07T04:36:38;3.30;99.90
10249;DHT22;5169;50.560;9.714;2022-12-07T04:39:26;3.20;99.90
10249;DHT22;5169;50.560;9.714;2022-12-07T04:42:01;3.20;99.90
10249;DHT22;5169;50.560;9.714;2022-12-07T04:44:34;3.20;99.90
10249;DHT22;5169;50.560;9.714;2022-12-07T04:47:00;3.20;99.90
10249;DHT22;5169;50.560;9.714;2022-12-07T04:49:26;3.20;99.90
10249;DHT22;5169;50.560;9.714;2022-12-07T04:51:54;3.20;99.90
10249;DHT22;5169;50.560;9.714;2022-12-07T04:54:20;3.30;99.90
10249;DHT22;5169;50.560;9.714;2022-12-07T04:56:56;3.30;99.90
10249;DHT22;5169;50.560;9.714;2022-12-07T04:59:21;3.30;99.90
10249;DHT22;5169;50.560;9.714;2022-12-07T05:01:49;3.30;99.90
10249;DHT22;5169;50.560;9.714;2022-12-07T05:04:21;3.30;99.90
10249;DHT22;5169;50.560;9.714;2022-12-07T05:06:47;3.30;99.90
10249;DHT22;5169;50.560;9.714;2022-12-07T05:09:15;3.30;99.90
10249;DHT22;5169;50.560;9.714;2022-12-07T05:11:46;3.30;99.90
10249;DHT22;5169;50.560;9.714;2022-12-07T05:14:19;3.20;99.90
10249;DHT22;5169;50.560;9.714;2022-12-07T05:16:46;3.20;99.90
10249;DHT22;5169;50.560;9.714;2022-12-07T05:19:12;3.20;99.90
10249;DHT22;5169;50.560;9.714;2022-12-07T05:21:46;3.20;99.90
10249;DHT22;5169;50.560;9.714;2022-12-07T05:24:18;3.20;99.90
10249;DHT22;5169;50.560;9.714;2022-12-07T05:26:45;3.20;99.90
10249;DHT22;5169;50.560;9.714;2022-12-07T05:29:13;3.30;99.90
10249;DHT22;5169;50.560;9.714;2022-12-07T05:31:39;3.30;99.90
10249;DHT22;5169;50.560;9.714;2022-12-07T05:34:08;3.20;99.90
10249;DHT22;5169;50.560;9.714;2022-12-07T05:36:36;3.20;99.90
10249;DHT22;5169;50.560;9.714;2022-12-07T05:39:02;3.20;99.90
10249;DHT22;5169;50.560;9.714;2022-12-07T05:41:31;3.20;99.90
10249;DHT22;5169;50.560;9.714;2022-12-07T05:44:19;3.20;99.90
10249;DHT22;5169;50.560;9.714;2022-12-07T05:46:46;3.20;99.90
10249;DHT22;5169;50.560;9.714;2022-12-07T05:49:12;3.30;99.90
10249;DHT22;5169;50.560;9.714;2022-12-07T05:51:38;3.20;99.90
10249;DHT22;5169;50.560;9.714;2022-12-07T05:54:09;3.20;99.90
10249;DHT22;5169;50.560;9.714;2022-12-07T05:56:45;3.30;99.90
10249;DHT22;5169;50.560;9.714;2022-12-07T05:59:11;3.40;99.90
10249;DHT22;5169;50.560;9.714;2022-12-07T06:01:57;3.40;99.90
10249;DHT22;5169;50.560;9.714;2022-12-07T06:04:27;3.40;99.90
10249;DHT22;5169;50.560;9.714;2022-12-07T06:06:59;3.50;99.90
10249;DHT22;5169;50.560;9.714;2022-12-07T06:09:36;3.40;99.90
10249;DHT22;5169;50.560;9.714;2022-12-07T06:12:10;3.40;99.90
10249;DHT22;5169;50.560;9.714;2022-12-07T06:14:56;3.40;99.90
10249;DHT22;5169;50.560;9.714;2022-12-07T06:17:22;3.40;99.90
10249;DHT22;5169;50.560;9.714;2022-12-07T06:19:48;3.50;99.90
10249;DHT22;5169;50.560;9.714;2022-12-07T06:22:13;3.50;99.90
10249;DHT22;5169;50.560;9.714;2022-12-07T06:24:39;3.60;99.90
10249;DHT22;5169;50.560;9.714;2022-12-07T06:27:11;3.60;99.90
10249;DHT22;5169;50.560;9.714;2022-12-07T06:29:37;3.50;99.90
10249;DHT22;5169;50.560;9.714;2022-12-07T06:32:05;3.50;99.90
10249;DHT22;5169;50.560;9.714;2022-12-07T06:34:34;3.60;99.90
10249;DHT22;5169;50.560;9.714;2022-12-07T06:37:00;3.60;99.90
10249;DHT22;5169;50.560;9.714;2022-12-07T06:39:32;3.50;99.90
10249;DHT22;5169;50.560;9.714;2022-12-07T06:41:58;3.50;99.90
10249;DHT22;5169;50.560;9.714;2022-12-07T06:44:25;3.60;99.90
10249;DHT22;5169;50.560;9.714;2022-12-07T06:46:51;3.60;99.90
10249;DHT22;5169;50.560;9.714;2022-12-07T06:49:17;3.60;99.90
10249;DHT22;5169;50.560;9.714;2022-12-07T06:51:43;3.60;99.90
10249;DHT22;5169;50.560;9.714;2022-12-07T06:54:10;3.60;99.90
10249;DHT22;5169;50.560;9.714;2022-12-07T06:56:40;3.60;99.90
10249;DHT22;5169;50.560;9.714;2022-12-07T06:59:07;3.60;99.90
10249;DHT22;5169;50.560;9.714;2022-12-07T07:01:34;3.60;99.90
10249;DHT22;5169;50.560;9.714;2022-12-07T07:04:03;3.70;99.90
10249;DHT22;5169;50.560;9.714;2022-12-07T07:06:29;3.70;99.90
10249;DHT22;5169;50.560;9.714;2022-12-07T07:08:56;3.70;99.90
10249;DHT22;5169;50.560;9.714;2022-12-07T07:11:29;3.70;99.90
10249;DHT22;5169;50.560;9.714;2022-12-07T07:13:55;3.60;99.90
10249;DHT22;5169;50.560;9.714;2022-12-07T07:16:30;3.60;99.90
10249;DHT22;5169;50.560;9.714;2022-12-07T07:18:58;3.60;99.90
10249;DHT22;5169;50.560;9.714;2022-12-07T07:21:27;3.60;99.90
10249;DHT22;5169;50.560;9.714;2022-12-07T07:23:55;3.60;99.90
10249;DHT22;5169;50.560;9.714;2022-12-07T07:26:21;3.60;99.90
10249;DHT22;5169;50.560;9.714;2022-12-07T07:28:47;3.60;99.90
10249;DHT22;5169;50.560;9.714;2022-12-07T07:31:15;3.50;99.90
10249;DHT22;5169;50.560;9.714;2022-12-07T07:33:41;3.50;99.90
10249;DHT22;5169;50.560;9.714;2022-12-07T07:36:06;3.60;99.90
10249;DHT22;5169;50.560;9.714;2022-12-07T07:38:34;3.50;99.90
10249;DHT22;5169;50.560;9.714;2022-12-07T07:41:06;3.60;99.90
10249;DHT22;5169;50.560;9.714;2022-12-07T07:43:32;3.60;99.90
10249;DHT22;5169;50.560;9.714;2022-12-07T07:46:06;3.60;99.90
10249;DHT22;5169;50.560;9.714;2022-12-07T07:48:32;3.70;99.90
10249;DHT22;5169;50.560;9.714;2022-12-07T07:50:57;3.70;99.90
10249;DHT22;5169;50.560;9.714;2022-12-07T07:53:23;3.80;99.90
10249;DHT22;5169;50.560;9.714;2022-12-07T07:55:53;3.80;99.90
10249;DHT22;5169;50.560;9.714;2022-12-07T07:58:27;3.80;99.90
10249;DHT22;5169;50.560;9.714;2022-12-07T08:01:06;3.80;99.90
10249;DHT22;5169;50.560;9.714;2022-12-07T08:03:35;3.80;99.90
10249;DHT22;5169;50.560;9.714;2022-12-07T08:06:08;3.90;99.90
10249;DHT22;5169;50.560;9.714;2022-12-07T08:08:33;3.80;99.90
10249;DHT22;5169;50.560;9.714;2022-12-07T08:11:08;3.90;99.90
10249;DHT22;5169;50.560;9.714;2022-12-07T08:13:34;4.00;99.90
10249;DHT22;5169;50.560;9.714;2022-12-07T08:16:09;4.00;99.90
10249;DHT22;5169;50.560;9.714;2022-12-07T08:18:36;4.00;99.90
10249;DHT22;5169;50.560;9.714;2022-12-07T08:21:11;4.00;99.90
10249;DHT22;5169;50.560;9.714;2022-12-07T08:23:38;4.00;99.90
10249;DHT22;5169;50.560;9.714;2022-12-07T08:26:08;4.00;99.90
10249;DHT22;5169;50.560;9.714;2022-12-07T08:28:43;4.00;99.90
10249;DHT22;5169;50.560;9.714;2022-12-07T08:31:17;4.00;99.90
10249;DHT22;5169;50.560;9.714;2022-12-07T08:33:48;4.10;99.90
10249;DHT22;5169;50.560;9.714;2022-12-07T08:36:17;4.10;99.90
10249;DHT22;5169;50.560;9.714;2022-12-07T08:38:43;4.00;99.90
10249;DHT22;5169;50.560;9.714;2022-12-07T08:41:12;4.00;99.90
10249;DHT22;5169;50.560;9.714;2022-12-07T08:43:38;4.00;99.90
10249;DHT22;5169;50.560;9.714;2022-12-07T08:46:23;4.00;99.90
10249;DHT22;5169;50.560;9.714;2022-12-07T08:48:58;4.00;99.90
10249;DHT22;5169;50.560;9.714;2022-12-07T08:51:26;4.10;99.90
10249;DHT22;5169;50.560;9.714;2022-12-07T08:53:52;4.10;99.90
10249;DHT22;5169;50.560;9.714;2022-12-07T08:56:23;4.10;99.90
10249;DHT22;5169;50.560;9.714;2022-12-07T08:58:49;4.20;99.90
10249;DHT22;5169;50.560;9.714;2022-12-07T09:01:17;4.20;99.90
10249;DHT22;5169;50.560;9.714;2022-12-07T09:03:42;4.30;99.90
10249;DHT22;5169;50.560;9.714;2022-12-07T09:06:11;4.30;99.90
10249;DHT22;5169;50.560;9.714;2022-12-07T09:08:42;4.30;99.90
10249;DHT22;5169;50.560;9.714;2022-12-07T09:11:11;4.20;99.90
10249;DHT22;5169;50.560;9.714;2022-12-07T09:13:44;4.20;99.90
10249;DHT22;5169;50.560;9.714;2022-12-07T09:16:12;4.10;99.90
10249;DHT22;5169;50.560;9.714;2022-12-07T09:18:38;4.30;99.90
10249;DHT22;5169;50.560;9.714;2022-12-07T09:21:06;4.40;99.90
10249;DHT22;5169;50.560;9.714;2022-12-07T09:23:32;4.50;99.90
10249;DHT22;5169;50.560;9.714;2022-12-07T09:26:02;4.60;99.90
10249;DHT22;5169;50.560;9.714;2022-12-07T09:28:32;4.60;99.90
10249;DHT22;5169;50.560;9.714;2022-12-07T09:31:00;4.70;99.90
10249;DHT22;5169;50.560;9.714;2022-12-07T09:33:25;4.70;99.90
10249;DHT22;5169;50.560;9.714;2022-12-07T09:35:54;4.70;99.90
10249;DHT22;5169;50.560;9.714;2022-12-07T09:38:22;4.70;99.90
10249;DHT22;5169;50.560;9.714;2022-12-07T09:40:53;4.80;99.90
10249;DHT22;5169;50.560;9.714;2022-12-07T09:43:24;4.90;99.90
10249;DHT22;5169;50.560;9.714;2022-12-07T09:45:54;4.90;99.90
10249;DHT22;5169;50.560;9.714;2022-12-07T09:48:47;5.00;99.90
10249;DHT22;5169;50.560;9.714;2022-12-07T09:51:22;5.10;99.90
10249;DHT22;5169;50.560;9.714;2022-12-07T09:53:53;5.00;99.90
10249;DHT22;5169;50.560;9.714;2022-12-07T09:56:22;5.00;99.90
10249;DHT22;5169;50.560;9.714;2022-12-07T09:58:49;5.00;99.90
10249;DHT22;5169;50.560;9.714;2022-12-07T10:01:19;5.00;99.90
10249;DHT22;5169;50.560;9.714;2022-12-07T10:04:02;5.00;99.90
10249;DHT22;5169;50.560;9.714;2022-12-07T10:06:36;5.20;99.90
10249;DHT22;5169;50.560;9.714;2022-12-07T10:09:12;5.20;99.90
10249;DHT22;5169;50.560;9.714;2022-12-07T10:12:11;4.90;99.90
10249;DHT22;5169;50.560;9.714;2022-12-07T10:14:52;4.90;99.90
10249;DHT22;5169;50.560;9.714;2022-12-07T10:17:39;4.90;99.90
10249;DHT22;5169;50.560;9.714;2022-12-07T10:20:17;5.10;99.90
10249;DHT22;5169;50.560;9.714;2022-12-07T10:25:31;5.50;99.90
10249;DHT22;5169;50.560;9.714;2022-12-07T10:28:12;5.60;99.90
10249;DHT22;5169;50.560;9.714;2022-12-07T10:33:44;5.30;99.90
10249;DHT22;5169;50.560;9.714;2022-12-07T10:39:00;5.00;99.90
10249;DHT22;5169;50.560;9.714;2022-12-07T10:41:26;5.00;99.90
10249;DHT22;5169;50.560;9.714;2022-12-07T10:43:56;5.00;99.90
10249;DHT22;5169;50.560;9.714;2022-12-07T10:52:32;5.00;99.90
10249;DHT22;5169;50.560;9.714;2022-12-07T10:55:18;5.00;99.90
10249;DHT22;5169;50.560;9.714;2022-12-07T11:07:13;5.10;99.90
10249;DHT22;5169;50.560;9.714;2022-12-07T11:17:48;4.80;99.90
10249;DHT22;5169;50.560;9.714;2022-12-07T11:25:39;4.80;99.90
10249;DHT22;5169;50.560;9.714;2022-12-07T11:34:06;5.00;99.90
10249;DHT22;5169;50.560;9.714;2022-12-07T11:36:59;5.00;99.90
10249;DHT22;5169;50.560;9.714;2022-12-07T11:39:36;5.00;99.90
10249;DHT22;5169;50.560;9.714;2022-12-07T11:44:59;5.10;99.90
10249;DHT22;5169;50.560;9.714;2022-12-07T11:47:47;5.10;99.90
10249;DHT22;5169;50.560;9.714;2022-12-07T11:50:36;5.00;99.90
10249;DHT22;5169;50.560;9.714;2022-12-07T12:04:02;5.00;99.90
10249;DHT22;5169;50.560;9.714;2022-12-07T12:06:31;4.90;99.90
10249;DHT22;5169;50.560;9.714;2022-12-07T12:09:27;4.80;99.90
10249;DHT22;5169;50.560;9.714;2022-12-07T12:12:01;4.80;99.90
10249;DHT22;5169;50.560;9.714;2022-12-07T12:20:39;4.80;99.90
10249;DHT22;5169;50.560;9.714;2022-12-07T12:23:13;4.90;99.90
10249;DHT22;5169;50.560;9.714;2022-12-07T12:28:29;4.80;99.90
10249;DHT22;5169;50.560;9.714;2022-12-07T12:33:57;4.80;99.90
10249;DHT22;5169;50.560;9.714;2022-12-07T12:57:34;4.90;99.90
10249;DHT22;5169;50.560;9.714;2022-12-07T13:00:22;4.90;99.90
10249;DHT22;5169;50.560;9.714;2022-12-07T13:02:58;4.80;99.90
10249;DHT22;5169;50.560;9.714;2022-12-07T13:05:33;4.90;99.90
10249;DHT22;5169;50.560;9.714;2022-12-07T13:08:00;4.90;99.90
10249;DHT22;5169;50.560;9.714;2022-12-07T13:20:58;5.40;99.90
10249;DHT22;5169;50.560;9.714;2022-12-07T13:31:50;5.80;99.90
10249;DHT22;5169;50.560;9.714;2022-12-07T13:34:39;5.60;99.90
10249;DHT22;5169;50.560;9.714;2022-12-07T13:40:25;5.40;99.90
10249;DHT22;5169;50.560;9.714;2022-12-07T13:43:03;5.30;99.90
10249;DHT22;5169;50.560;9.714;2022-12-07T13:45:33;5.40;99.90
10249;DHT22;5169;50.560;9.714;2022-12-07T13:50:56;5.40;99.90
10249;DHT22;5169;50.560;9.714;2022-12-07T13:53:22;5.40;99.90
10249;DHT22;5169;50.560;9.714;2022-12-07T13:55:49;5.40;99.90
10249;DHT22;5169;50.560;9.714;2022-12-07T13:58:32;5.40;99.90
10249;DHT22;5169;50.560;9.714;2022-12-07T14:00:59;5.40;99.90
10249;DHT22;5169;50.560;9.714;2022-12-07T14:03:35;5.40;99.90
10249;DHT22;5169;50.560;9.714;2022-12-07T14:08:33;5.20;99.90
10249;DHT22;5169;50.560;9.714;2022-12-07T14:10:59;5.10;99.90
10249;DHT22;5169;50.560;9.714;2022-12-07T14:18:49;5.10;99.90
10249;DHT22;5169;50.560;9.714;2022-12-07T14:21:25;5.00;99.90
10249;DHT22;5169;50.560;9.714;2022-12-07T14:26:38;4.90;99.90
10249;DHT22;5169;50.560;9.714;2022-12-07T14:29:21;4.80;99.90
10249;DHT22;5169;50.560;9.714;2022-12-07T14:31:47;4.80;99.90
10249;DHT22;5169;50.560;9.714;2022-12-07T14:34:13;4.70;99.90
10249;DHT22;5169;50.560;9.714;2022-12-07T14:36:39;4.70;99.90
10249;DHT22;5169;50.560;9.714;2022-12-07T14:39:09;4.60;99.90
10249;DHT22;5169;50.560;9.714;2022-12-07T14:41:37;4.60;99.90
10249;DHT22;5169;50.560;9.714;2022-12-07T14:44:22;4.50;99.90
10249;DHT22;5169;50.560;9.714;2022-12-07T14:46:57;4.30;99.90
10249;DHT22;5169;50.560;9.714;2022-12-07T14:49:22;4.30;99.90
10249;DHT22;5169;50.560;9.714;2022-12-07T14:51:50;4.10;99.90
10249;DHT22;5169;50.560;9.714;2022-12-07T14:54:25;4.10;99.90
10249;DHT22;5169;50.560;9.714;2022-12-07T14:56:58;4.10;99.90
10249;DHT22;5169;50.560;9.714;2022-12-07T14:59:24;4.00;99.90
10249;DHT22;5169;50.560;9.714;2022-12-07T15:01:50;4.00;99.90
10249;DHT22;5169;50.560;9.714;2022-12-07T15:04:21;4.00;99.90
10249;DHT22;5169;50.560;9.714;2022-12-07T15:07:20;4.00;99.90
10249;DHT22;5169;50.560;9.714;2022-12-07T15:09:49;3.90;99.90
10249;DHT22;5169;50.560;9.714;2022-12-07T15:12:15;3.80;99.90
10249;DHT22;5169;50.560;9.714;2022-12-07T15:14:43;3.90;99.90
10249;DHT22;5169;50.560;9.714;2022-12-07T15:17:12;3.80;99.90
10249;DHT22;5169;50.560;9.714;2022-12-07T15:19:43;3.90;99.90
10249;DHT22;5169;50.560;9.714;2022-12-07T15:22:11;4.00;99.90
10249;DHT22;5169;50.560;9.714;2022-12-07T15:24:37;4.00;99.90
10249;DHT22;5169;50.560;9.714;2022-12-07T15:27:03;3.90;99.90
10249;DHT22;5169;50.560;9.714;2022-12-07T15:29:31;4.00;99.90
10249;DHT22;5169;50.560;9.714;2022-12-07T15:31:57;4.00;99.90
10249;DHT22;5169;50.560;9.714;2022-12-07T15:34:31;4.00;99.90
10249;DHT22;5169;50.560;9.714;2022-12-07T15:36:57;4.00;99.90
10249;DHT22;5169;50.560;9.714;2022-12-07T15:39:23;4.00;99.90
10249;DHT22;5169;50.560;9.714;2022-12-07T15:41:51;4.00;99.90
10249;DHT22;5169;50.560;9.714;2022-12-07T15:44:20;4.10;99.90
10249;DHT22;5169;50.560;9.714;2022-12-07T15:47:11;4.00;99.90
10249;DHT22;5169;50.560;9.714;2022-12-07T15:49:46;4.00;99.90
10249;DHT22;5169;50.560;9.714;2022-12-07T15:52:11;4.00;99.90
10249;DHT22;5169;50.560;9.714;2022-12-07T15:54:37;4.10;99.90
10249;DHT22;5169;50.560;9.714;2022-12-07T15:57:03;4.00;99.90
10249;DHT22;5169;50.560;9.714;2022-12-07T15:59:35;4.00;99.90
10249;DHT22;5169;50.560;9.714;2022-12-07T16:02:00;4.10;99.90
10249;DHT22;5169;50.560;9.714;2022-12-07T16:04:27;4.10;99.90
10249;DHT22;5169;50.560;9.714;2022-12-07T16:06:57;4.10;99.90
10249;DHT22;5169;50.560;9.714;2022-12-07T16:09:23;4.10;99.90
10249;DHT22;5169;50.560;9.714;2022-12-07T16:11:49;4.10;99.90
10249;DHT22;5169;50.560;9.714;2022-12-07T16:14:15;4.10;99.90
10249;DHT22;5169;50.560;9.714;2022-12-07T16:16:47;4.10;99.90
10249;DHT22;5169;50.560;9.714;2022-12-07T16:19:12;4.10;99.90
10249;DHT22;5169;50.560;9.714;2022-12-07T16:21:38;4.00;99.90
10249;DHT22;5169;50.560;9.714;2022-12-07T16:24:04;4.00;99.90
10249;DHT22;5169;50.560;9.714;2022-12-07T16:26:38;4.00;99.90
10249;DHT22;5169;50.560;9.714;2022-12-07T16:29:04;4.00;99.90
10249;DHT22;5169;50.560;9.714;2022-12-07T16:31:35;4.00;99.90
10249;DHT22;5169;50.560;9.714;2022-12-07T16:34:01;3.90;99.90
10249;DHT22;5169;50.560;9.714;2022-12-07T16:36:27;3.90;99.90
10249;DHT22;5169;50.560;9.714;2022-12-07T16:38:52;3.90;99.90
10249;DHT22;5169;50.560;9.714;2022-12-07T16:41:22;3.90;99.90
10249;DHT22;5169;50.560;9.714;2022-12-07T16:43:47;3.90;99.90
10249;DHT22;5169;50.560;9.714;2022-12-07T16:46:13;3.90;99.90
10249;DHT22;5169;50.560;9.714;2022-12-07T16:48:40;3.90;99.90
10249;DHT22;5169;50.560;9.714;2022-12-07T16:51:11;3.80;99.90
10249;DHT22;5169;50.560;9.714;2022-12-07T16:53:41;3.60;99.90
10249;DHT22;5169;50.560;9.714;2022-12-07T16:56:12;3.60;99.90
10249;DHT22;5169;50.560;9.714;2022-12-07T16:58:38;3.60;99.90
10249;DHT22;5169;50.560;9.714;2022-12-07T17:01:36;3.70;99.90
10249;DHT22;5169;50.560;9.714;2022-12-07T17:04:05;3.70;99.90
10249;DHT22;5169;50.560;9.714;2022-12-07T17:06:34;3.70;99.90
10249;DHT22;5169;50.560;9.714;2022-12-07T17:09:01;3.70;99.90
10249;DHT22;5169;50.560;9.714;2022-12-07T17:11:29;3.70;99.90
10249;DHT22;5169;50.560;9.714;2022-12-07T17:14:01;3.80;99.90
10249;DHT22;5169;50.560;9.714;2022-12-07T17:16:49;3.80;99.90
10249;DHT22;5169;50.560;9.714;2022-12-07T17:19:17;3.80;99.90
10249;DHT22;5169;50.560;9.714;2022-12-07T17:21:46;3.80;99.90
10249;DHT22;5169;50.560;9.714;2022-12-07T17:24:15;3.60;99.90
10249;DHT22;5169;50.560;9.714;2022-12-07T17:26:46;3.60;99.90
10249;DHT22;5169;50.560;9.714;2022-12-07T17:29:14;3.70;99.90
10249;DHT22;5169;50.560;9.714;2022-12-07T17:31:47;3.70;99.90
10249;DHT22;5169;50.560;9.714;2022-12-07T17:34:14;3.60;99.90
10249;DHT22;5169;50.560;9.714;2022-12-07T17:36:42;3.50;99.90
10249;DHT22;5169;50.560;9.714;2022-12-07T17:39:15;3.50;99.90
10249;DHT22;5169;50.560;9.714;2022-12-07T17:41:42;3.50;99.90
10249;DHT22;5169;50.560;9.714;2022-12-07T17:44:27;3.60;99.90
10249;DHT22;5169;50.560;9.714;2022-12-07T17:46:53;3.60;99.90
10249;DHT22;5169;50.560;9.714;2022-12-07T17:49:35;3.60;99.90
10249;DHT22;5169;50.560;9.714;2022-12-07T17:52:01;3.70;99.90
10249;DHT22;5169;50.560;9.714;2022-12-07T17:54:48;3.70;99.90
10249;DHT22;5169;50.560;9.714;2022-12-07T17:57:24;3.70;99.90
10249;DHT22;5169;50.560;9.714;2022-12-07T17:59:50;3.70;99.90
10249;DHT22;5169;50.560;9.714;2022-12-07T18:02:17;3.50;99.90
10249;DHT22;5169;50.560;9.714;2022-12-07T18:04:46;3.60;99.90
10249;DHT22;5169;50.560;9.714;2022-12-07T18:07:12;3.60;99.90
10249;DHT22;5169;50.560;9.714;2022-12-07T18:09:41;3.50;99.90
10249;DHT22;5169;50.560;9.714;2022-12-07T18:12:14;3.50;99.90
10249;DHT22;5169;50.560;9.714;2022-12-07T18:14:42;3.60;99.90
10249;DHT22;5169;50.560;9.714;2022-12-07T18:17:13;3.50;99.90
10249;DHT22;5169;50.560;9.714;2022-12-07T18:19:39;3.60;99.90
10249;DHT22;5169;50.560;9.714;2022-12-07T18:22:06;3.50;99.90
10249;DHT22;5169;50.560;9.714;2022-12-07T18:24:35;3.60;99.90
10249;DHT22;5169;50.560;9.714;2022-12-07T18:27:03;3.60;99.90
10249;DHT22;5169;50.560;9.714;2022-12-07T18:29:29;3.50;99.90
10249;DHT22;5169;50.560;9.714;2022-12-07T18:32:01;3.60;99.90
10249;DHT22;5169;50.560;9.714;2022-12-07T18:34:36;3.60;99.90
10249;DHT22;5169;50.560;9.714;2022-12-07T18:37:02;3.70;99.90
10249;DHT22;5169;50.560;9.714;2022-12-07T18:39:27;3.70;99.90
10249;DHT22;5169;50.560;9.714;2022-12-07T18:41:53;3.60;99.90
10249;DHT22;5169;50.560;9.714;2022-12-07T18:44:26;3.50;99.90
10249;DHT22;5169;50.560;9.714;2022-12-07T18:46:52;3.50;99.90
10249;DHT22;5169;50.560;9.714;2022-12-07T18:49:18;3.50;99.90
10249;DHT22;5169;50.560;9.714;2022-12-07T18:51:49;3.40;99.90
10249;DHT22;5169;50.560;9.714;2022-12-07T18:54:15;3.40;99.90
10249;DHT22;5169;50.560;9.714;2022-12-07T18:56:40;3.40;99.90
10249;DHT22;5169;50.560;9.714;2022-12-07T18:59:06;3.40;99.90
10249;DHT22;5169;50.560;9.714;2022-12-07T19:01:53;3.50;99.90
10249;DHT22;5169;50.560;9.714;2022-12-07T19:04:25;3.40;99.90
10249;DHT22;5169;50.560;9.714;2022-12-07T19:06:53;3.40;99.90
10249;DHT22;5169;50.560;9.714;2022-12-07T19:09:23;3.40;99.90
10249;DHT22;5169;50.560;9.714;2022-12-07T19:11:49;3.40;99.90
10249;DHT22;5169;50.560;9.714;2022-12-07T19:16:56;3.50;99.90
10249;DHT22;5169;50.560;9.714;2022-12-07T19:19:37;3.50;99.90
10249;DHT22;5169;50.560;9.714;2022-12-07T19:22:04;3.40;99.90